createdAt,value
2018-07-27T00:01:07.855Z,24.473267
2018-07-27T00:02:23.718Z,24.463196
2018-07-27T00:03:39.597Z,24.432983
2018-07-27T00:04:55.487Z,24.372559
2018-07-27T00:06:11.435Z,24.322205
2018-07-27T00:07:27.356Z,24.221497
2018-07-27T00:08:43.234Z,24.181213
2018-07-27T00:09:59.127Z,24.221497
2018-07-27T00:11:15.039Z,24.241638
2018-07-27T00:12:30.910Z,24.251709
2018-07-27T00:13:46.756Z,24.281921
2018-07-27T00:15:02.632Z,24.312134
2018-07-27T00:16:18.509Z,24.241638
2018-07-27T00:17:34.360Z,24.312134
2018-07-27T00:18:50.216Z,24.382629
2018-07-27T00:20:06.137Z,24.342346
2018-07-27T00:21:21.999Z,24.221497
2018-07-27T00:22:37.898Z,24.191284
2018-07-27T00:23:53.751Z,24.14093
2018-07-27T00:25:09.677Z,24.100647
2018-07-27T00:26:25.637Z,24.040222
2018-07-27T00:27:41.530Z,24.090576
2018-07-27T00:28:57.377Z,24.14093
2018-07-27T00:30:13.266Z,24.090576
2018-07-27T00:31:29.157Z,24.130859
2018-07-27T00:32:45.037Z,24.14093
2018-07-27T00:34:00.933Z,24.130859
2018-07-27T00:35:16.806Z,24.130859
2018-07-27T00:36:32.704Z,24.181213
2018-07-27T00:37:48.623Z,24.14093
2018-07-27T00:39:04.484Z,24.110718
2018-07-27T00:40:20.352Z,24.070435
2018-07-27T00:41:36.202Z,23.989868
2018-07-27T00:42:52.092Z,23.999939
2018-07-27T00:44:07.976Z,23.989868
2018-07-27T00:45:23.876Z,23.959656
2018-07-27T00:46:39.768Z,24.090576
2018-07-27T00:47:55.651Z,24.090576
2018-07-27T00:49:11.542Z,24.040222
2018-07-27T00:50:27.419Z,24.130859
2018-07-27T00:51:43.296Z,24.161072
2018-07-27T00:52:59.220Z,24.161072
2018-07-27T00:54:15.140Z,24.181213
2018-07-27T00:55:31.006Z,24.070435
2018-07-27T00:56:46.873Z,23.959656
2018-07-27T00:58:02.775Z,23.858948
2018-07-27T00:59:18.654Z,23.879089
2018-07-27T01:00:34.530Z,23.818665
2018-07-27T01:01:50.406Z,23.788452
2018-07-27T01:03:06.305Z,23.768311
2018-07-27T01:04:22.150Z,23.808594
2018-07-27T01:05:38.024Z,23.768311
2018-07-27T01:06:53.877Z,23.768311
2018-07-27T01:08:09.783Z,23.768311
2018-07-27T01:09:25.657Z,23.75824
2018-07-27T01:10:41.524Z,23.697815
2018-07-27T01:11:57.444Z,23.788452
2018-07-27T01:13:13.356Z,23.707886
2018-07-27T01:14:29.209Z,23.707886
2018-07-27T01:15:45.067Z,23.728027
2018-07-27T01:17:00.958Z,23.728027
2018-07-27T01:18:16.884Z,23.687744
2018-07-27T01:19:32.746Z,23.738098
2018-07-27T01:20:48.684Z,23.728027
2018-07-27T01:22:04.587Z,23.556824
2018-07-27T01:23:20.445Z,23.466187
2018-07-27T01:24:36.336Z,23.415833
2018-07-27T01:25:52.182Z,23.486328
2018-07-27T01:27:08.047Z,23.576965
2018-07-27T01:28:23.942Z,23.355408
2018-07-27T01:29:39.841Z,23.184204
2018-07-27T01:30:55.707Z,23.284912
2018-07-27T01:32:11.623Z,23.466187
2018-07-27T01:33:27.511Z,23.476257
2018-07-27T01:34:43.375Z,23.466187
2018-07-27T01:35:59.256Z,23.466187
2018-07-27T01:37:15.144Z,23.486328
2018-07-27T01:38:31.050Z,23.325195
2018-07-27T01:39:46.943Z,23.395691
2018-07-27T01:41:02.824Z,23.476257
2018-07-27T01:42:18.694Z,23.365479
2018-07-27T01:43:34.560Z,23.294983
2018-07-27T01:44:50.436Z,23.2547
2018-07-27T01:46:06.306Z,23.234558
2018-07-27T01:47:22.175Z,23.355408
2018-07-27T01:48:38.064Z,23.284912
2018-07-27T01:49:53.992Z,23.38562
2018-07-27T01:51:09.847Z,23.395691
2018-07-27T01:52:25.713Z,23.264771
2018-07-27T01:53:41.605Z,23.264771
2018-07-27T01:54:57.456Z,23.335266
2018-07-27T01:56:13.333Z,23.2547
2018-07-27T01:57:29.221Z,23.294983
2018-07-27T01:58:45.111Z,23.315125
2018-07-27T02:00:01.068Z,23.2547
2018-07-27T02:01:16.943Z,23.395691
2018-07-27T02:02:32.801Z,23.435974
2018-07-27T02:03:48.640Z,23.335266
2018-07-27T02:05:04.558Z,23.284912
2018-07-27T02:06:20.415Z,23.143921
2018-07-27T02:07:36.304Z,23.13385
2018-07-27T02:08:52.163Z,23.143921
2018-07-27T02:10:08.013Z,23.234558
2018-07-27T02:11:23.877Z,23.214417
2018-07-27T02:12:39.759Z,23.294983
2018-07-27T02:13:55.655Z,23.284912
2018-07-27T02:15:11.529Z,23.2547
2018-07-27T02:16:27.412Z,23.13385
2018-07-27T02:17:43.273Z,23.083496
2018-07-27T02:18:59.174Z,23.113708
2018-07-27T02:20:15.064Z,23.13385
2018-07-27T02:21:30.947Z,23.143921
2018-07-27T02:22:46.804Z,23.174133
2018-07-27T02:24:02.712Z,23.083496
2018-07-27T02:25:18.618Z,23.073425
2018-07-27T02:26:34.483Z,23.013
2018-07-27T02:27:50.358Z,23.023071
2018-07-27T02:29:06.207Z,23.063354
2018-07-27T02:30:22.104Z,23.043213
2018-07-27T02:31:37.958Z,23.043213
2018-07-27T02:32:53.851Z,22.952576
2018-07-27T02:34:09.744Z,22.922363
2018-07-27T02:35:25.634Z,22.76123
2018-07-27T02:36:41.508Z,22.76123
2018-07-27T02:37:57.393Z,22.811584
2018-07-27T02:39:13.268Z,22.861938
2018-07-27T02:40:29.171Z,22.88208
2018-07-27T02:41:45.051Z,22.912292
2018-07-27T02:43:00.906Z,22.88208
2018-07-27T02:44:16.792Z,22.841797
2018-07-27T02:45:32.660Z,22.892151
2018-07-27T02:46:48.507Z,22.771301
2018-07-27T02:48:04.375Z,22.670593
2018-07-27T02:49:20.263Z,22.50946
2018-07-27T02:50:36.183Z,22.519531
2018-07-27T02:51:52.035Z,22.610168
2018-07-27T02:53:07.914Z,22.700806
2018-07-27T02:54:23.801Z,22.700806
2018-07-27T02:55:39.678Z,22.710876
2018-07-27T02:56:55.581Z,22.801514
2018-07-27T02:58:11.448Z,22.710876
2018-07-27T02:59:27.308Z,22.650452
2018-07-27T03:00:43.190Z,22.620239
2018-07-27T03:01:59.084Z,22.63031
2018-07-27T03:03:14.969Z,22.710876
2018-07-27T03:04:30.838Z,22.811584
2018-07-27T03:05:46.739Z,22.771301
2018-07-27T03:07:02.636Z,22.650452
2018-07-27T03:08:18.507Z,22.680664
2018-07-27T03:09:34.387Z,22.76123
2018-07-27T03:10:50.209Z,22.670593
2018-07-27T03:12:06.118Z,22.610168
2018-07-27T03:13:21.993Z,22.680664
2018-07-27T03:14:37.851Z,22.620239
2018-07-27T03:15:53.731Z,22.590027
2018-07-27T03:17:09.642Z,22.529602
2018-07-27T03:18:25.548Z,22.519531
2018-07-27T03:19:41.421Z,22.438965
2018-07-27T03:20:57.313Z,22.489319
2018-07-27T03:22:13.174Z,22.428894
2018-07-27T03:23:29.055Z,22.37854
2018-07-27T03:24:44.902Z,22.398682
2018-07-27T03:26:00.737Z,22.428894
2018-07-27T03:27:16.586Z,22.308044
2018-07-27T03:28:32.472Z,22.308044
2018-07-27T03:29:48.325Z,22.24762
2018-07-27T03:31:04.243Z,22.25769
2018-07-27T03:32:20.145Z,22.328186
2018-07-27T03:33:36.041Z,22.297974
2018-07-27T03:34:51.910Z,22.187195
2018-07-27T03:36:07.776Z,22.24762
2018-07-27T03:37:23.669Z,22.297974
2018-07-27T03:38:39.575Z,22.328186
2018-07-27T03:39:55.448Z,22.328186
2018-07-27T03:41:11.312Z,22.428894
2018-07-27T03:42:27.197Z,22.227478
2018-07-27T03:43:43.134Z,22.187195
2018-07-27T03:44:58.939Z,22.338257
2018-07-27T03:46:14.783Z,22.428894
2018-07-27T03:47:30.660Z,22.338257
2018-07-27T03:48:46.530Z,22.217407
2018-07-27T03:50:02.393Z,22.146912
2018-07-27T03:51:18.257Z,22.177124
2018-07-27T03:52:34.163Z,22.026062
2018-07-27T03:53:50.019Z,22.036133
2018-07-27T03:55:05.899Z,22.026062
2018-07-27T03:56:21.826Z,22.00592
2018-07-27T03:57:37.725Z,22.056274
2018-07-27T03:58:53.618Z,22.207336
2018-07-27T04:00:09.465Z,22.136841
2018-07-27T04:01:25.339Z,22.116699
2018-07-27T04:02:41.260Z,22.156982
2018-07-27T04:03:57.155Z,22.136841
2018-07-27T04:05:13.044Z,21.965637
2018-07-27T04:06:28.920Z,22.00592
2018-07-27T04:07:44.818Z,22.066345
2018-07-27T04:09:00.728Z,22.136841
2018-07-27T04:10:16.626Z,22.187195
2018-07-27T04:11:32.544Z,22.177124
2018-07-27T04:12:48.443Z,22.136841
2018-07-27T04:14:05.235Z,22.156982
2018-07-27T04:15:21.187Z,22.116699
2018-07-27T04:16:37.076Z,22.036133
2018-07-27T04:17:52.989Z,21.915283
2018-07-27T04:19:08.868Z,21.814575
2018-07-27T04:20:24.834Z,21.875
2018-07-27T04:21:40.724Z,21.885071
2018-07-27T04:22:56.646Z,21.915283
2018-07-27T04:24:12.573Z,21.99585
2018-07-27T04:25:28.542Z,22.00592
2018-07-27T04:26:44.544Z,22.026062
2018-07-27T04:28:00.441Z,22.00592
2018-07-27T04:29:16.345Z,22.026062
2018-07-27T04:30:32.255Z,22.066345
2018-07-27T04:31:48.157Z,22.136841
2018-07-27T04:33:04.109Z,22.056274
2018-07-27T04:34:20.046Z,22.056274
2018-07-27T04:35:35.990Z,22.096558
2018-07-27T04:36:51.850Z,22.096558
2018-07-27T04:38:07.808Z,22.217407
2018-07-27T04:39:23.783Z,22.187195
2018-07-27T04:40:39.679Z,22.227478
2018-07-27T04:41:55.577Z,22.187195
2018-07-27T04:43:11.483Z,22.227478
2018-07-27T04:44:27.408Z,22.217407
2018-07-27T04:45:43.307Z,22.227478
2018-07-27T04:46:59.175Z,22.207336
2018-07-27T04:48:14.111Z,22.177124
2018-07-27T04:51:10.864Z,22.217407
2018-07-27T04:52:26.778Z,22.338257
2018-07-27T04:53:42.714Z,22.358398
2018-07-27T04:54:58.656Z,22.428894
2018-07-27T04:56:14.580Z,22.338257
2018-07-27T04:57:30.477Z,22.25769
2018-07-27T04:58:46.517Z,22.358398
2018-07-27T05:00:02.539Z,22.368469
2018-07-27T05:01:18.399Z,22.408752
2018-07-27T05:02:34.331Z,22.459106
2018-07-27T05:05:34.960Z,22.459106
2018-07-27T05:06:50.869Z,22.519531
2018-07-27T05:08:06.741Z,22.610168
2018-07-27T05:09:22.656Z,22.63031
2018-07-27T05:10:38.589Z,22.650452
2018-07-27T05:11:54.536Z,22.63031
2018-07-27T05:13:10.359Z,22.590027
2018-07-27T05:14:26.264Z,22.700806
2018-07-27T05:15:42.185Z,22.620239
2018-07-27T05:16:58.072Z,22.610168
2018-07-27T05:18:13.988Z,22.731018
2018-07-27T05:19:29.806Z,22.781372
2018-07-27T05:20:45.726Z,22.831726
2018-07-27T05:22:01.637Z,22.912292
2018-07-27T05:23:17.527Z,22.831726
2018-07-27T05:24:33.459Z,22.831726
2018-07-27T05:25:49.357Z,22.912292
2018-07-27T05:27:05.322Z,22.741089
2018-07-27T05:28:21.252Z,22.700806
2018-07-27T05:29:37.283Z,22.771301
2018-07-27T05:30:53.216Z,22.811584
2018-07-27T05:32:09.108Z,22.811584
2018-07-27T05:33:25.996Z,22.88208
2018-07-27T05:34:41.913Z,22.811584
2018-07-27T05:35:57.807Z,22.811584
2018-07-27T05:37:13.686Z,22.831726
2018-07-27T05:38:29.585Z,22.892151
2018-07-27T05:39:45.473Z,22.922363
2018-07-27T05:41:01.346Z,22.952576
2018-07-27T05:42:17.215Z,22.841797
2018-07-27T05:43:33.113Z,22.892151
2018-07-27T05:44:49.001Z,22.952576
2018-07-27T05:46:05.130Z,23.083496
2018-07-27T05:47:21.033Z,23.103638
2018-07-27T05:48:36.963Z,23.073425
2018-07-27T05:49:52.836Z,23.023071
2018-07-27T05:51:08.874Z,23.073425
2018-07-27T05:52:24.801Z,23.113708
2018-07-27T05:53:40.702Z,23.214417
2018-07-27T05:54:56.656Z,23.174133
2018-07-27T05:56:12.636Z,23.214417
2018-07-27T05:57:28.548Z,23.174133
2018-07-27T05:58:44.443Z,23.184204
2018-07-27T06:00:00.349Z,23.214417
2018-07-27T06:01:16.336Z,23.294983
2018-07-27T06:02:32.145Z,23.315125
2018-07-27T06:03:48.023Z,23.435974
2018-07-27T06:05:03.903Z,23.466187
2018-07-27T06:06:19.802Z,23.435974
2018-07-27T06:07:35.679Z,23.355408
2018-07-27T06:08:51.603Z,23.415833
2018-07-27T06:10:07.427Z,23.486328
2018-07-27T06:11:23.339Z,23.486328
2018-07-27T06:12:39.289Z,23.435974
2018-07-27T06:13:55.742Z,23.50647
2018-07-27T06:15:11.637Z,23.516541
2018-07-27T06:16:27.560Z,23.546753
2018-07-27T06:17:43.491Z,23.587036
2018-07-27T06:18:59.312Z,23.627319
2018-07-27T06:20:15.215Z,23.657532
2018-07-27T06:21:31.111Z,23.687744
2018-07-27T06:22:47.014Z,23.707886
2018-07-27T06:24:02.990Z,23.697815
2018-07-27T06:25:18.855Z,23.657532
2018-07-27T06:26:34.811Z,23.587036
2018-07-27T06:27:50.687Z,23.617249
2018-07-27T06:29:06.615Z,23.687744
2018-07-27T06:30:22.526Z,23.627319
2018-07-27T06:31:38.417Z,23.697815
2018-07-27T06:32:54.334Z,23.75824
2018-07-27T06:34:10.216Z,23.818665
2018-07-27T06:35:26.102Z,23.909302
2018-07-27T06:36:41.983Z,23.909302
2018-07-27T06:37:57.932Z,23.808594
2018-07-27T06:39:13.873Z,23.858948
2018-07-27T06:40:29.713Z,23.939514
2018-07-27T06:41:46.616Z,23.909302
2018-07-27T06:43:02.502Z,23.879089
2018-07-27T06:44:18.382Z,23.959656
2018-07-27T06:45:34.260Z,23.999939
2018-07-27T06:46:50.175Z,24.060364
2018-07-27T06:48:06.111Z,23.949585
2018-07-27T06:49:22.024Z,23.939514
2018-07-27T06:50:37.888Z,23.939514
2018-07-27T06:51:53.793Z,24.060364
2018-07-27T06:53:09.714Z,24.040222
2018-07-27T06:54:25.650Z,24.060364
2018-07-27T06:55:41.547Z,24.070435
2018-07-27T06:56:57.453Z,24.090576
2018-07-27T06:58:13.323Z,24.090576
2018-07-27T06:59:29.294Z,24.030151
2018-07-27T07:00:45.197Z,23.989868
2018-07-27T07:02:01.079Z,24.01001
2018-07-27T07:03:16.954Z,23.88916
2018-07-27T07:04:32.885Z,23.858948
2018-07-27T07:05:48.781Z,23.838806
2018-07-27T07:07:04.678Z,23.808594
2018-07-27T07:08:20.566Z,23.858948
2018-07-27T07:09:36.468Z,24.01001
2018-07-27T07:10:52.357Z,24.030151
2018-07-27T07:12:08.202Z,23.949585
2018-07-27T07:13:24.088Z,23.838806
2018-07-27T07:14:39.995Z,23.808594
2018-07-27T07:15:55.907Z,23.788452
2018-07-27T07:17:11.801Z,23.909302
2018-07-27T07:18:27.712Z,23.858948
2018-07-27T07:19:43.642Z,23.879089
2018-07-27T07:20:59.515Z,23.909302
2018-07-27T07:22:15.399Z,23.909302
2018-07-27T07:23:31.379Z,23.949585
2018-07-27T07:24:47.356Z,23.939514
2018-07-27T07:26:03.617Z,23.999939
2018-07-27T07:27:19.156Z,23.949585
2018-07-27T07:28:35.033Z,24.01001
2018-07-27T07:29:50.946Z,23.959656
2018-07-27T07:31:06.807Z,23.999939
2018-07-27T07:32:22.694Z,24.01001
2018-07-27T07:33:38.616Z,24.100647
2018-07-27T07:34:54.524Z,24.181213
2018-07-27T07:36:10.414Z,24.070435
2018-07-27T07:37:26.330Z,23.999939
2018-07-27T07:38:42.265Z,24.040222
2018-07-27T07:39:58.180Z,24.090576
2018-07-27T07:41:14.081Z,24.040222
2018-07-27T07:42:30.033Z,24.060364
2018-07-27T07:43:45.983Z,24.040222
2018-07-27T07:45:01.967Z,24.040222
2018-07-27T07:46:17.777Z,24.090576
2018-07-27T07:47:33.664Z,24.181213
2018-07-27T07:48:49.597Z,24.161072
2018-07-27T07:50:05.483Z,24.040222
2018-07-27T07:51:21.421Z,24.14093
2018-07-27T07:52:37.306Z,24.161072
2018-07-27T07:53:53.201Z,24.110718
2018-07-27T07:55:09.091Z,24.100647
2018-07-27T07:56:24.998Z,23.989868
2018-07-27T07:57:40.910Z,24.060364
2018-07-27T07:58:56.860Z,24.01001
2018-07-27T08:00:12.761Z,24.070435
2018-07-27T08:01:28.654Z,24.070435
2018-07-27T08:02:44.565Z,24.130859
2018-07-27T08:04:00.515Z,23.959656
2018-07-27T08:05:16.443Z,24.01001
2018-07-27T08:06:32.330Z,24.191284
2018-07-27T08:07:48.220Z,24.26178
2018-07-27T08:09:04.153Z,24.291992
2018-07-27T08:10:20.066Z,24.382629
2018-07-27T08:11:35.940Z,24.473267
2018-07-27T08:12:51.835Z,24.473267
2018-07-27T08:14:07.805Z,24.432983
2018-07-27T08:15:23.684Z,24.291992
2018-07-27T08:16:39.624Z,24.312134
2018-07-27T08:17:55.510Z,24.181213
2018-07-27T08:19:11.512Z,24.14093
2018-07-27T08:20:27.426Z,24.161072
2018-07-27T08:21:43.371Z,24.211426
2018-07-27T08:22:59.288Z,24.191284
2018-07-27T08:24:15.270Z,24.382629
2018-07-27T08:25:31.145Z,24.382629
2018-07-27T08:26:47.097Z,24.362488
2018-07-27T08:28:02.977Z,24.463196
2018-07-27T08:29:18.908Z,24.432983
2018-07-27T08:30:34.798Z,24.432983
2018-07-27T08:31:50.643Z,24.553833
2018-07-27T08:33:06.523Z,24.503479
2018-07-27T08:34:22.462Z,24.594116
2018-07-27T08:35:38.364Z,24.553833
2018-07-27T08:36:54.235Z,24.312134
2018-07-27T08:38:10.117Z,24.443054
2018-07-27T08:39:26.020Z,24.291992
2018-07-27T08:40:41.951Z,24.463196
2018-07-27T08:41:57.837Z,24.553833
2018-07-27T08:43:13.718Z,24.694824
2018-07-27T08:44:29.756Z,24.735107
2018-07-27T08:45:45.664Z,24.775391
2018-07-27T08:47:01.624Z,24.654541
2018-07-27T08:48:17.518Z,24.664612
2018-07-27T08:49:33.463Z,24.654541
2018-07-27T08:50:49.379Z,24.443054
2018-07-27T08:52:05.290Z,24.342346
2018-07-27T08:53:21.301Z,24.432983
2018-07-27T08:54:37.198Z,24.402771
2018-07-27T08:55:53.128Z,24.553833
2018-07-27T08:57:09.029Z,24.614258
2018-07-27T08:58:24.940Z,24.51355
2018-07-27T08:59:40.818Z,24.584045
2018-07-27T09:00:56.771Z,24.714966
2018-07-27T09:02:12.632Z,24.936523
2018-07-27T09:03:28.551Z,24.966736
2018-07-27T09:04:44.442Z,24.986877
2018-07-27T09:06:00.355Z,24.916382
2018-07-27T09:07:16.257Z,24.936523
2018-07-27T09:08:32.136Z,24.916382
2018-07-27T09:09:48.101Z,24.805603
2018-07-27T09:11:04.028Z,24.855957
2018-07-27T09:12:19.979Z,24.876099
2018-07-27T09:13:35.867Z,24.785461
2018-07-27T09:14:51.777Z,24.916382
2018-07-27T09:16:07.663Z,24.966736
2018-07-27T09:17:23.608Z,24.926453
2018-07-27T09:18:39.482Z,24.996948
2018-07-27T09:19:55.401Z,24.815674
2018-07-27T09:21:11.323Z,24.775391
2018-07-27T09:22:27.222Z,24.714966
2018-07-27T09:23:43.161Z,24.594116
2018-07-27T09:24:59.305Z,24.735107
2018-07-27T09:26:14.969Z,24.986877
2018-07-27T09:27:30.897Z,25.14801
2018-07-27T09:28:46.831Z,25.067444
2018-07-27T09:30:02.745Z,25.178223
2018-07-27T09:31:18.621Z,25.188293
2018-07-27T09:32:34.552Z,25.14801
2018-07-27T09:33:50.480Z,25.057373
2018-07-27T09:35:06.478Z,25.087585
2018-07-27T09:36:22.364Z,25.087585
2018-07-27T09:37:38.274Z,25.178223
2018-07-27T09:38:54.228Z,25.258789
2018-07-27T09:40:10.280Z,25.339355
2018-07-27T09:41:26.189Z,25.359497
2018-07-27T09:42:42.194Z,25.389709
2018-07-27T09:43:58.046Z,25.429993
2018-07-27T09:45:13.973Z,25.409851
2018-07-27T09:46:29.980Z,25.14801
2018-07-27T09:47:45.888Z,25.087585
2018-07-27T09:49:01.794Z,25.248718
2018-07-27T09:50:17.697Z,25.329285
2018-07-27T09:51:33.639Z,25.208435
2018-07-27T09:52:49.527Z,24.966736
2018-07-27T09:54:05.493Z,25.137939
2018-07-27T09:55:22.390Z,25.309143
2018-07-27T09:56:38.313Z,25.429993
2018-07-27T09:57:54.344Z,25.480347
2018-07-27T09:59:10.171Z,25.540771
2018-07-27T10:00:26.083Z,25.52063
2018-07-27T10:01:41.981Z,25.510559
2018-07-27T10:02:57.886Z,25.460205
2018-07-27T10:04:13.774Z,25.248718
2018-07-27T10:05:29.659Z,25.117798
2018-07-27T10:06:46.545Z,25.359497
2018-07-27T10:08:02.438Z,25.510559
2018-07-27T10:09:18.376Z,25.631409
2018-07-27T10:10:34.249Z,25.742188
2018-07-27T10:11:50.158Z,25.711975
2018-07-27T10:13:06.086Z,25.440063
2018-07-27T10:14:22.007Z,25.611267
2018-07-27T10:15:37.924Z,25.631409
2018-07-27T10:16:53.821Z,25.681763
2018-07-27T10:18:09.820Z,25.621338
2018-07-27T10:19:25.749Z,25.429993
2018-07-27T10:20:41.663Z,25.560913
2018-07-27T10:21:57.538Z,25.480347
2018-07-27T10:23:13.417Z,25.510559
2018-07-27T10:24:29.339Z,25.762329
2018-07-27T10:25:45.202Z,25.883179
2018-07-27T10:27:01.096Z,25.913391
2018-07-27T10:28:16.970Z,25.993958
2018-07-27T10:29:32.846Z,25.933533
2018-07-27T10:30:48.733Z,25.7724
2018-07-27T10:32:04.664Z,25.762329
2018-07-27T10:33:20.545Z,25.681763
2018-07-27T10:34:36.467Z,25.782471
2018-07-27T10:35:52.385Z,25.832825
2018-07-27T10:37:08.314Z,25.933533
2018-07-27T10:38:24.222Z,25.923462
2018-07-27T10:39:43.021Z,25.933533
2018-07-27T10:40:59.840Z,25.913391
2018-07-27T10:42:15.787Z,26.084595
2018-07-27T10:43:31.760Z,25.953674
2018-07-27T10:44:47.730Z,25.812683
2018-07-27T10:46:03.589Z,25.802612
2018-07-27T10:47:19.514Z,25.923462
2018-07-27T10:48:35.390Z,25.802612
2018-07-27T10:49:51.321Z,25.812683
2018-07-27T10:51:07.232Z,25.681763
2018-07-27T10:52:23.129Z,25.802612
2018-07-27T10:53:39.020Z,25.953674
2018-07-27T10:54:54.975Z,26.044312
2018-07-27T10:56:10.859Z,26.034241
2018-07-27T10:57:26.778Z,25.863037
2018-07-27T10:58:42.684Z,25.983887
2018-07-27T10:59:58.588Z,26.114807
2018-07-27T11:01:14.455Z,26.175232
2018-07-27T11:02:30.628Z,26.064453
2018-07-27T11:03:46.503Z,26.175232
2018-07-27T11:05:03.433Z,26.386719
2018-07-27T11:06:19.348Z,26.437073
2018-07-27T11:07:35.271Z,26.477356
2018-07-27T11:08:51.408Z,26.598206
2018-07-27T11:11:48.947Z,26.598206
2018-07-27T11:13:04.893Z,26.628418
2018-07-27T11:14:20.852Z,26.547852
2018-07-27T11:15:36.833Z,26.598206
2018-07-27T11:16:52.779Z,26.487427
2018-07-27T11:18:08.751Z,26.668701
2018-07-27T11:19:24.660Z,26.608276
2018-07-27T18:38:54.150Z,28.028259
2018-07-27T18:40:10.041Z,28.008118
2018-07-27T18:41:25.976Z,27.977905
2018-07-27T18:42:41.861Z,27.967834
2018-07-27T18:43:57.776Z,27.937622
2018-07-27T18:45:14.786Z,27.927551
2018-07-27T18:46:30.782Z,27.897339
2018-07-27T18:47:46.731Z,27.877197
2018-07-27T18:49:02.715Z,27.846985
2018-07-27T18:50:18.639Z,27.806702
2018-07-27T18:51:34.593Z,27.756348
2018-07-27T18:52:50.468Z,27.756348
2018-07-27T18:54:06.417Z,27.746277
2018-07-27T18:55:22.328Z,27.716064
2018-07-27T18:56:38.248Z,27.675781
2018-07-27T18:57:54.139Z,27.66571
2018-07-27T18:59:10.112Z,27.635498
2018-07-27T19:00:26.054Z,27.605286
2018-07-27T19:01:42.022Z,27.595215
2018-07-27T19:02:57.887Z,27.565002
2018-07-27T19:04:13.782Z,27.554932
2018-07-27T19:05:29.723Z,27.524719
2018-07-27T19:06:45.622Z,27.504578
2018-07-27T19:08:01.508Z,27.474365
2018-07-27T19:09:17.399Z,27.474365
2018-07-27T19:10:33.363Z,27.434082
2018-07-27T19:11:49.262Z,27.434082
2018-07-27T19:13:05.274Z,27.40387
2018-07-27T19:14:21.195Z,27.40387
2018-07-27T19:15:37.156Z,27.40387
2018-07-27T19:16:53.067Z,27.373657
2018-07-27T19:18:08.963Z,27.343445
2018-07-27T19:19:25.049Z,27.333374
2018-07-27T19:20:40.974Z,27.343445
2018-07-27T19:21:56.876Z,27.343445
2018-07-27T19:23:12.916Z,27.333374
2018-07-27T19:24:28.784Z,27.333374
2018-07-27T19:25:44.730Z,27.293091
2018-07-27T19:27:00.654Z,27.28302
2018-07-27T19:28:16.689Z,27.303162
2018-07-27T19:29:32.663Z,27.262878
2018-07-27T19:30:48.600Z,27.182312
2018-07-27T19:32:04.530Z,27.192383
2018-07-27T19:33:20.454Z,27.202454
2018-07-27T19:34:36.344Z,27.202454
2018-07-27T19:35:52.254Z,27.222595
2018-07-27T19:37:08.181Z,27.202454
2018-07-27T19:38:24.098Z,27.192383
2018-07-27T19:39:40.095Z,27.16217
2018-07-27T19:40:56.000Z,27.192383
2018-07-27T19:42:11.979Z,27.192383
2018-07-27T19:43:27.852Z,27.182312
2018-07-27T19:44:43.911Z,27.192383
2018-07-27T19:45:59.942Z,27.16217
2018-07-27T19:47:16.867Z,27.1521
2018-07-27T19:48:32.797Z,27.101746
2018-07-27T19:49:48.684Z,27.081604
2018-07-27T19:51:04.852Z,27.101746
2018-07-27T19:52:20.829Z,27.101746
2018-07-27T19:53:36.803Z,27.071533
2018-07-27T19:54:52.694Z,27.071533
2018-07-27T19:56:09.637Z,27.051392
2018-07-27T19:57:25.516Z,27.041321
2018-07-27T19:58:41.477Z,27.041321
2018-07-27T19:59:57.481Z,27.03125
2018-07-27T20:01:13.396Z,27.011108
2018-07-27T20:02:29.403Z,27.001038
2018-07-27T20:03:45.279Z,27.001038
2018-07-27T20:05:01.244Z,26.980896
2018-07-27T20:06:17.191Z,26.970825
2018-07-27T20:07:33.171Z,26.930542
2018-07-27T20:08:49.181Z,26.930542
2018-07-27T20:10:05.107Z,26.930542
2018-07-27T20:11:21.062Z,26.9104
2018-07-27T20:12:37.008Z,26.880188
2018-07-27T20:13:52.943Z,26.880188
2018-07-27T20:15:08.914Z,26.880188
2018-07-27T20:16:24.821Z,26.880188
2018-07-27T20:17:40.746Z,26.829834
2018-07-27T20:18:57.656Z,26.789551
2018-07-27T20:20:13.663Z,26.789551
2018-07-27T20:21:30.144Z,26.77948
2018-07-27T20:22:46.817Z,26.729126
2018-07-27T20:24:02.755Z,26.739197
2018-07-27T20:25:18.686Z,26.759338
2018-07-27T20:26:34.615Z,26.789551
2018-07-27T20:27:50.551Z,26.789551
2018-07-27T20:29:06.534Z,26.708984
2018-07-27T20:30:22.545Z,26.65863
2018-07-27T20:31:38.442Z,26.65863
2018-07-27T20:32:54.385Z,26.668701
2018-07-27T20:34:10.332Z,26.678772
2018-07-27T20:35:26.295Z,26.638489
2018-07-27T20:36:42.231Z,26.598206
2018-07-27T20:37:58.233Z,26.608276
2018-07-27T20:39:14.188Z,26.608276
2018-07-27T20:40:30.222Z,26.598206
2018-07-27T20:41:46.128Z,26.598206
2018-07-27T20:43:02.052Z,26.52771
2018-07-27T20:44:17.987Z,26.557922
2018-07-27T20:45:33.917Z,26.547852
2018-07-27T20:46:49.839Z,26.517639
2018-07-27T20:48:05.747Z,26.557922
2018-07-27T20:49:21.685Z,26.547852
2018-07-27T20:50:37.723Z,26.52771
2018-07-27T20:51:53.660Z,26.52771
2018-07-27T20:53:09.562Z,26.487427
2018-07-27T20:54:25.491Z,26.487427
2018-07-27T20:55:41.449Z,26.457214
2018-07-27T20:56:57.433Z,26.477356
2018-07-27T20:58:13.346Z,26.457214
2018-07-27T20:59:29.253Z,26.477356
2018-07-27T21:00:45.220Z,26.447144
2018-07-27T21:02:01.160Z,26.487427
2018-07-27T21:03:17.248Z,26.487427
2018-07-27T21:04:33.812Z,26.477356
2018-07-27T21:05:49.767Z,26.457214
2018-07-27T21:07:05.832Z,26.447144
2018-07-27T21:08:22.435Z,26.40686
2018-07-27T21:09:38.370Z,26.356506
2018-07-27T21:10:54.428Z,26.336365
2018-07-27T21:12:10.621Z,26.265869
2018-07-27T21:13:26.536Z,26.265869
2018-07-27T21:14:42.482Z,26.255798
2018-07-27T21:15:58.452Z,26.286011
2018-07-27T21:17:14.343Z,26.265869
2018-07-27T21:18:30.285Z,26.225586
2018-07-27T21:19:46.306Z,26.225586
2018-07-27T21:21:02.245Z,26.225586
2018-07-27T21:22:18.185Z,26.215515
2018-07-27T21:23:34.144Z,26.185303
2018-07-27T21:24:50.112Z,26.175232
2018-07-27T21:26:06.063Z,26.215515
2018-07-27T21:27:22.043Z,26.114807
2018-07-27T21:28:37.965Z,26.104736
2018-07-27T21:29:53.892Z,26.104736
2018-07-27T21:31:09.824Z,26.255798
2018-07-27T21:32:25.814Z,26.326294
2018-07-27T21:33:41.730Z,26.366577
2018-07-27T21:34:57.667Z,26.366577
2018-07-27T21:36:13.662Z,26.336365
2018-07-27T21:37:29.637Z,26.356506
2018-07-27T21:38:45.540Z,26.306152
2018-07-27T21:40:01.513Z,26.265869
2018-07-27T21:41:17.523Z,26.296082
2018-07-27T21:42:33.528Z,26.235657
2018-07-27T21:43:49.447Z,26.225586
2018-07-27T21:45:05.490Z,26.185303
2018-07-27T21:46:21.354Z,26.175232
2018-07-27T21:47:38.265Z,26.175232
2018-07-27T21:48:54.173Z,26.215515
2018-07-27T21:50:10.079Z,26.225586
2018-07-27T21:51:26.009Z,26.235657
2018-07-27T21:52:41.924Z,26.235657